Time;durP1;ratioP1;P1;durP2;ratioP2;P2;SDS_P1;SDS_P2;PMS_P1;PMS_P2;Temp;Humidity;BMP_temperature;BMP_pressure;BME280_temperature;BME280_humidity;BME280_pressure;Samples;Min_cycle;Max_cycle;Signal;HPM_P1;HPM_P2
2021/08/15 00:00:41;;;;;;;14.05;6.70;;;;;;;;;;4344770;33;20160;-79
2021/08/15 00:03:07;;;;;;;14.48;5.65;;;;;;;;;;4343373;33;20243;-78
2021/08/15 00:05:32;;;;;;;12.18;6.05;;;;;;;;;;4343839;33;20247;-78
2021/08/15 00:07:57;;;;;;;10.80;6.18;;;;;;;;;;4344061;33;20195;-78
2021/08/15 00:10:23;;;;;;;11.05;5.78;;;;;;;;;;4343910;33;20182;-78
2021/08/15 00:12:48;;;;;;;10.65;5.53;;;;;;;;;;4345854;33;20239;-77
2021/08/15 00:15:14;;;;;;;11.15;5.53;;;;;;;;;;4346967;33;20160;-78
2021/08/15 00:17:39;;;;;;;13.05;6.28;;;;;;;;;;4346478;33;20167;-78
2021/08/15 00:20:05;;;;;;;12.48;6.25;;;;;;;;;;4346913;32;20160;-80
2021/08/15 00:22:31;;;;;;;11.98;6.32;;;;;;;;;;4348433;33;20148;-80
2021/08/15 00:24:56;;;;;;;11.80;6.57;;;;;;;;;;4360351;32;20251;-79
2021/08/15 00:27:21;;;;;;;12.10;7.12;;;;;;;;;;4358780;32;20183;-78
2021/08/15 00:29:46;;;;;;;10.75;6.43;;;;;;;;;;4358739;32;20194;-78
2021/08/15 00:32:14;;;;;;;8.60;6.45;;;;;;;;;;4359021;32;20163;-78
2021/08/15 00:34:49;;;;;;;10.02;7.12;;;;;;;;;;4346426;33;20155;-78
2021/08/15 00:37:14;;;;;;;10.82;5.32;;;;;;;;;;4346216;33;20171;-78
2021/08/15 00:39:39;;;;;;;9.90;5.40;;;;;;;;;;4346432;33;20168;-78
2021/08/15 00:42:05;;;;;;;8.35;5.35;;;;;;;;;;4346454;33;20156;-78
2021/08/15 00:44:30;;;;;;;10.00;5.43;;;;;;;;;;4346100;33;20197;-78
2021/08/15 00:46:57;;;;;;;8.43;5.00;;;;;;;;;;4346169;33;20154;-78
2021/08/15 00:49:22;;;;;;;10.10;5.15;;;;;;;;;;4358409;32;20220;-78
2021/08/15 00:51:47;;;;;;;8.75;5.53;;;;;;;;;;4345801;33;20497;-79
2021/08/15 00:54:12;;;;;;;11.65;5.72;;;;;;;;;;4346340;33;20171;-78
2021/08/15 00:56:39;;;;;;;8.10;5.55;;;;;;;;;;4348222;32;20170;-79
2021/08/15 00:59:05;;;;;;;12.13;6.72;;;;;;;;;;4345947;33;20218;-79
2021/08/15 01:01:32;;;;;;;10.70;7.07;;;;;;;;;;4345893;33;20194;-79
2021/08/15 01:03:57;;;;;;;17.83;10.05;;;;;;;;;;4345963;33;20159;-79
2021/08/15 01:06:23;;;;;;;16.37;8.90;;;;;;;;;;4346201;33;20504;-79
2021/08/15 01:08:48;;;;;;;21.58;11.77;;;;;;;;;;4346266;33;20199;-79
2021/08/15 01:11:13;;;;;;;17.40;9.27;;;;;;;;;;4347053;32;20128;-78
2021/08/15 01:13:39;;;;;;;12.98;7.03;;;;;;;;;;4346191;33;20168;-79
2021/08/15 01:16:05;;;;;;;13.55;6.22;;;;;;;;;;4345168;33;20183;-79
2021/08/15 01:18:31;;;;;;;9.73;5.80;;;;;;;;;;4347304;32;20170;-79
2021/08/15 01:21:00;;;;;;;9.73;5.45;;;;;;;;;;4346666;33;20465;-79
2021/08/15 01:23:26;;;;;;;10.55;4.97;;;;;;;;;;4345098;33;20159;-78
2021/08/15 01:25:52;;;;;;;11.48;5.57;;;;;;;;;;4346219;33;20557;-79
2021/08/15 01:28:21;;;;;;;9.38;5.82;;;;;;;;;;4345994;33;20175;-80
2021/08/15 01:30:49;;;;;;;12.23;6.15;;;;;;;;;;4345715;33;20160;-79
2021/08/15 01:33:27;;;;;;;12.25;6.15;;;;;;;;;;4332243;33;20582;-79
2021/08/15 01:35:55;;;;;;;11.30;6.18;;;;;;;;;;4352181;32;20186;-79
2021/08/15 01:38:21;;;;;;;11.43;5.30;;;;;;;;;;4345317;33;20576;-79
2021/08/15 01:40:47;;;;;;;11.48;5.57;;;;;;;;;;4345623;33;20239;-79
2021/08/15 01:43:12;;;;;;;9.98;4.65;;;;;;;;;;4345096;33;20560;-79
2021/08/15 01:45:38;;;;;;;13.57;5.95;;;;;;;;;;4345289;33;20213;-79
2021/08/15 01:48:03;;;;;;;9.43;5.78;;;;;;;;;;4357537;32;20159;-79
2021/08/15 01:50:28;;;;;;;11.80;5.60;;;;;;;;;;4345758;33;20155;-79
2021/08/15 01:52:54;;;;;;;10.65;5.37;;;;;;;;;;4356333;33;20189;-78
2021/08/15 01:55:19;;;;;;;9.48;6.40;;;;;;;;;;4348048;33;20162;-78
2021/08/15 01:57:44;;;;;;;11.95;5.55;;;;;;;;;;4348445;32;20163;-78
2021/08/15 02:00:10;;;;;;;10.95;6.28;;;;;;;;;;4348096;33;20218;-79
2021/08/15 02:02:39;;;;;;;12.35;5.82;;;;;;;;;;4337484;32;20159;-78
2021/08/15 02:05:04;;;;;;;10.80;6.22;;;;;;;;;;4332631;33;20189;-78
2021/08/15 02:07:30;;;;;;;8.50;5.28;;;;;;;;;;4340407;33;20644;-78
2021/08/15 02:09:55;;;;;;;11.18;5.80;;;;;;;;;;4347919;33;20580;-78
2021/08/15 02:12:20;;;;;;;10.65;5.28;;;;;;;;;;4347762;33;20163;-80
2021/08/15 02:14:45;;;;;;;11.60;5.80;;;;;;;;;;4347380;33;20170;-80
2021/08/15 02:17:11;;;;;;;10.55;5.43;;;;;;;;;;4347591;33;20581;-80
2021/08/15 02:19:36;;;;;;;9.80;5.40;;;;;;;;;;4361208;33;20215;-78
2021/08/15 02:22:01;;;;;;;11.02;5.15;;;;;;;;;;4347654;33;20180;-80
2021/08/15 02:24:27;;;;;;;13.00;5.47;;;;;;;;;;4347533;33;20151;-80
2021/08/15 02:26:52;;;;;;;8.93;5.10;;;;;;;;;;4347335;33;20555;-79
2021/08/15 02:29:18;;;;;;;11.68;6.47;;;;;;;;;;4347077;33;20323;-78
2021/08/15 02:31:43;;;;;;;10.60;6.03;;;;;;;;;;4360809;32;20127;-79
2021/08/15 02:34:08;;;;;;;10.60;5.55;;;;;;;;;;4347617;32;20163;-78
2021/08/15 02:36:34;;;;;;;11.02;5.90;;;;;;;;;;4338914;33;20163;-79
2021/08/15 02:38:59;;;;;;;10.70;6.10;;;;;;;;;;4332306;33;20155;-79
2021/08/15 02:41:24;;;;;;;8.13;5.25;;;;;;;;;;4332217;33;20164;-79
2021/08/15 02:43:49;;;;;;;11.45;5.55;;;;;;;;;;4332814;33;20198;-79
2021/08/15 02:46:15;;;;;;;10.55;5.87;;;;;;;;;;4344813;33;20214;-79
2021/08/15 02:48:40;;;;;;;9.40;5.30;;;;;;;;;;4333430;33;20155;-78
2021/08/15 02:51:05;;;;;;;8.88;5.15;;;;;;;;;;4332128;33;20159;-79
2021/08/15 02:53:30;;;;;;;11.18;5.70;;;;;;;;;;4331966;33;20225;-79
2021/08/15 02:55:56;;;;;;;9.13;5.78;;;;;;;;;;4332491;33;20178;-79
2021/08/15 02:58:21;;;;;;;11.60;5.57;;;;;;;;;;4347160;33;20556;-78
2021/08/15 03:00:47;;;;;;;12.57;6.18;;;;;;;;;;4331587;33;20221;-79
2021/08/15 03:03:12;;;;;;;12.65;6.30;;;;;;;;;;4332122;33;20229;-78
2021/08/15 03:05:37;;;;;;;10.32;5.82;;;;;;;;;;4331950;33;20598;-78
2021/08/15 03:08:02;;;;;;;11.57;5.65;;;;;;;;;;4332041;33;20159;-78
2021/08/15 03:10:28;;;;;;;9.65;5.70;;;;;;;;;;4332332;33;20214;-79
2021/08/15 03:12:53;;;;;;;12.87;5.40;;;;;;;;;;4344398;33;20163;-78
2021/08/15 03:15:18;;;;;;;10.52;5.43;;;;;;;;;;4332728;33;20373;-78
2021/08/15 03:17:43;;;;;;;14.70;6.22;;;;;;;;;;4332347;33;20159;-78
2021/08/15 03:20:09;;;;;;;9.45;5.90;;;;;;;;;;4332155;33;20671;-78
2021/08/15 03:22:35;;;;;;;13.73;5.75;;;;;;;;;;4332061;33;20604;-79
2021/08/15 03:25:00;;;;;;;9.35;5.40;;;;;;;;;;4331907;33;20159;-78
2021/08/15 03:27:25;;;;;;;11.30;5.68;;;;;;;;;;4331819;33;20168;-79
2021/08/15 03:29:50;;;;;;;12.55;4.93;;;;;;;;;;4332036;33;20182;-78
2021/08/15 03:32:16;;;;;;;7.95;4.80;;;;;;;;;;4331811;33;20155;-78
2021/08/15 03:34:41;;;;;;;9.63;5.30;;;;;;;;;;4332525;33;20186;-78
2021/08/15 03:37:06;;;;;;;9.07;5.28;;;;;;;;;;4334851;33;20201;-79
2021/08/15 03:39:31;;;;;;;8.15;4.60;;;;;;;;;;4346466;33;20159;-78
2021/08/15 03:41:58;;;;;;;8.35;5.03;;;;;;;;;;4334182;33;20191;-78
2021/08/15 03:44:24;;;;;;;10.48;5.65;;;;;;;;;;4338876;33;20218;-78
2021/08/15 03:46:49;;;;;;;11.35;4.93;;;;;;;;;;4347555;33;20578;-79
2021/08/15 03:49:17;;;;;;;12.82;5.20;;;;;;;;;;4361780;32;20163;-79
2021/08/15 03:51:43;;;;;;;8.63;4.60;;;;;;;;;;4349162;33;20344;-79
2021/08/15 03:54:08;;;;;;;12.60;6.20;;;;;;;;;;4349904;33;20202;-78
2021/08/15 03:56:33;;;;;;;10.13;5.57;;;;;;;;;;4362834;32;20136;-78
2021/08/15 03:58:59;;;;;;;10.02;5.18;;;;;;;;;;4349877;32;20182;-78
2021/08/15 04:01:24;;;;;;;13.50;5.30;;;;;;;;;;4358366;32;20179;-78
2021/08/15 04:03:49;;;;;;;11.07;5.60;;;;;;;;;;4349660;33;20659;-78
2021/08/15 04:06:21;;;;;;;10.02;5.75;;;;;;;;;;4363032;32;20131;-79
2021/08/15 04:08:47;;;;;;;9.95;6.00;;;;;;;;;;4344461;33;20164;-78
2021/08/15 04:11:12;;;;;;;10.73;5.82;;;;;;;;;;4346526;33;20210;-78
2021/08/15 04:13:37;;;;;;;9.52;5.70;;;;;;;;;;4346472;33;20167;-79
2021/08/15 04:16:02;;;;;;;12.37;5.70;;;;;;;;;;4347084;33;20155;-79
2021/08/15 04:18:28;;;;;;;9.38;5.68;;;;;;;;;;4347446;33;20213;-79
2021/08/15 04:20:53;;;;;;;12.82;6.60;;;;;;;;;;4357663;33;20139;-79
2021/08/15 04:23:18;;;;;;;11.93;5.80;;;;;;;;;;4349064;32;20191;-79
2021/08/15 04:25:45;;;;;;;11.85;5.97;;;;;;;;;;4348810;33;20190;-79
2021/08/15 04:28:10;;;;;;;11.63;5.65;;;;;;;;;;4362561;32;20566;-78
2021/08/15 04:30:35;;;;;;;11.18;5.80;;;;;;;;;;4349266;33;20217;-80
2021/08/15 04:33:01;;;;;;;12.80;5.83;;;;;;;;;;4348619;33;20506;-80
2021/08/15 04:35:26;;;;;;;14.23;6.00;;;;;;;;;;4348504;33;20302;-80
2021/08/15 04:37:51;;;;;;;12.45;6.68;;;;;;;;;;4349044;32;20217;-81
2021/08/15 04:40:17;;;;;;;11.48;6.57;;;;;;;;;;4348875;33;20166;-80
2021/08/15 04:42:42;;;;;;;10.60;6.10;;;;;;;;;;4361608;32;20179;-80
2021/08/15 04:45:08;;;;;;;11.18;5.87;;;;;;;;;;4361403;32;20171;-80
2021/08/15 04:47:33;;;;;;;13.68;7.05;;;;;;;;;;4348814;33;20155;-79
2021/08/15 04:49:58;;;;;;;14.10;6.68;;;;;;;;;;4348523;33;20194;-80
2021/08/15 04:52:24;;;;;;;13.82;6.75;;;;;;;;;;4348695;33;20190;-79
2021/08/15 04:54:49;;;;;;;14.20;6.57;;;;;;;;;;4363215;32;20159;-79
2021/08/15 04:57:14;;;;;;;14.50;5.93;;;;;;;;;;4348317;32;20226;-78
2021/08/15 04:59:41;;;;;;;14.57;6.78;;;;;;;;;;4361202;33;20135;-79
2021/08/15 05:02:06;;;;;;;13.98;6.87;;;;;;;;;;4348469;33;20663;-79
2021/08/15 05:04:32;;;;;;;15.88;8.07;;;;;;;;;;4361796;32;20136;-78
2021/08/15 05:06:57;;;;;;;15.07;6.75;;;;;;;;;;4337633;33;20614;-79
2021/08/15 05:09:23;;;;;;;14.82;6.60;;;;;;;;;;4333387;33;20201;-78
2021/08/15 05:11:48;;;;;;;15.43;6.32;;;;;;;;;;4333534;33;20330;-79
2021/08/15 05:14:14;;;;;;;11.55;6.25;;;;;;;;;;4333329;33;20234;-79
2021/08/15 05:16:41;;;;;;;11.77;6.80;;;;;;;;;;4333386;33;20190;-78
2021/08/15 05:19:06;;;;;;;13.52;6.50;;;;;;;;;;4333379;33;20179;-78
2021/08/15 05:21:31;;;;;;;13.40;7.05;;;;;;;;;;4333502;33;20156;-79
2021/08/15 05:23:58;;;;;;;13.85;7.37;;;;;;;;;;4347201;33;20548;-79
2021/08/15 05:26:23;;;;;;;14.60;7.20;;;;;;;;;;4333767;33;20156;-79
2021/08/15 05:28:48;;;;;;;14.15;6.97;;;;;;;;;;4333574;33;20218;-78
2021/08/15 05:31:13;;;;;;;13.30;7.07;;;;;;;;;;4333213;33;20589;-78
2021/08/15 05:33:39;;;;;;;15.68;6.75;;;;;;;;;;4333142;33;20198;-79
2021/08/15 05:36:04;;;;;;;13.52;6.70;;;;;;;;;;4333960;33;20524;-78
2021/08/15 05:38:29;;;;;;;13.80;7.30;;;;;;;;;;4333401;33;20197;-80
2021/08/15 05:40:54;;;;;;;15.80;6.85;;;;;;;;;;4333364;33;20190;-80
2021/08/15 05:43:20;;;;;;;14.75;6.95;;;;;;;;;;4333221;33;20193;-79
2021/08/15 05:45:45;;;;;;;14.07;6.40;;;;;;;;;;4333069;33;20225;-78
2021/08/15 05:48:10;;;;;;;15.05;6.78;;;;;;;;;;4333205;33;20499;-80
2021/08/15 05:50:35;;;;;;;14.25;5.95;;;;;;;;;;4345647;33;20183;-79
2021/08/15 05:53:01;;;;;;;13.18;6.18;;;;;;;;;;4333017;33;20516;-79
2021/08/15 05:55:26;;;;;;;13.05;6.00;;;;;;;;;;4333279;33;20463;-79
2021/08/15 05:57:51;;;;;;;13.65;6.32;;;;;;;;;;4332752;33;20198;-79
2021/08/15 06:00:17;;;;;;;11.27;6.10;;;;;;;;;;4345145;33;20577;-79
2021/08/15 06:02:43;;;;;;;11.27;6.85;;;;;;;;;;4346417;33;20155;-79
2021/08/15 06:05:12;;;;;;;12.43;6.40;;;;;;;;;;4337362;33;20230;-80
2021/08/15 06:07:38;;;;;;;15.55;6.97;;;;;;;;;;4348117;33;20158;-79
2021/08/15 06:10:04;;;;;;;13.68;6.57;;;;;;;;;;4347515;33;20194;-79
2021/08/15 06:12:29;;;;;;;15.55;7.05;;;;;;;;;;4361286;32;20170;-79
2021/08/15 06:14:54;;;;;;;15.50;6.57;;;;;;;;;;4347606;33;20459;-79
2021/08/15 06:17:19;;;;;;;10.55;5.50;;;;;;;;;;4359556;33;20163;-78
2021/08/15 06:19:44;;;;;;;14.63;6.68;;;;;;;;;;4344529;33;20178;-78
2021/08/15 06:22:10;;;;;;;13.85;6.22;;;;;;;;;;4332801;33;20163;-79
2021/08/15 06:24:36;;;;;;;14.35;6.82;;;;;;;;;;4346478;33;20620;-79
2021/08/15 06:27:02;;;;;;;12.25;6.68;;;;;;;;;;4332385;33;20186;-80
2021/08/15 06:29:28;;;;;;;16.20;6.72;;;;;;;;;;4332347;33;20222;-79
2021/08/15 06:31:54;;;;;;;13.23;6.18;;;;;;;;;;4332165;33;20156;-79
2021/08/15 06:34:19;;;;;;;15.70;7.07;;;;;;;;;;4333502;33;20229;-79
2021/08/15 06:36:45;;;;;;;14.93;5.97;;;;;;;;;;4346741;33;20481;-79
2021/08/15 06:39:10;;;;;;;11.30;6.05;;;;;;;;;;4332217;33;20178;-80
2021/08/15 06:41:35;;;;;;;11.12;6.18;;;;;;;;;;4346237;33;20581;-80
2021/08/15 06:44:00;;;;;;;19.70;6.65;;;;;;;;;;4360242;32;20472;-79
2021/08/15 06:46:26;;;;;;;15.75;6.12;;;;;;;;;;4359068;33;20201;-79
2021/08/15 06:48:52;;;;;;;11.52;5.87;;;;;;;;;;4347394;33;20502;-79
2021/08/15 06:51:17;;;;;;;16.77;6.22;;;;;;;;;;4346740;32;20193;-79
2021/08/15 06:53:42;;;;;;;14.85;6.18;;;;;;;;;;4347174;33;20167;-79
2021/08/15 06:56:10;;;;;;;13.77;6.40;;;;;;;;;;4359119;32;20194;-79
2021/08/15 06:58:36;;;;;;;18.25;6.20;;;;;;;;;;4347043;33;20175;-79
2021/08/15 07:01:01;;;;;;;15.50;6.70;;;;;;;;;;4357175;32;20608;-78
2021/08/15 07:03:26;;;;;;;16.85;6.75;;;;;;;;;;4346264;33;20143;-79
2021/08/15 07:05:51;;;;;;;15.50;6.80;;;;;;;;;;4331946;33;20509;-80
2021/08/15 07:08:17;;;;;;;16.55;6.70;;;;;;;;;;4344181;33;20167;-79
2021/08/15 07:10:42;;;;;;;14.87;6.20;;;;;;;;;;4344449;33;20231;-80
2021/08/15 07:13:08;;;;;;;15.63;6.40;;;;;;;;;;4345344;33;20559;-79
2021/08/15 07:15:34;;;;;;;17.42;7.18;;;;;;;;;;4331916;33;20186;-79
2021/08/15 07:17:59;;;;;;;17.87;6.12;;;;;;;;;;4332273;33;20601;-80
2021/08/15 07:20:25;;;;;;;16.35;6.35;;;;;;;;;;4331652;33;20167;-78
2021/08/15 07:22:50;;;;;;;12.93;6.30;;;;;;;;;;4331490;33;20235;-80
2021/08/15 07:25:16;;;;;;;14.27;5.50;;;;;;;;;;4344139;33;20601;-79
2021/08/15 07:27:42;;;;;;;14.90;6.22;;;;;;;;;;4331923;33;20155;-78
2021/08/15 07:30:07;;;;;;;15.80;5.97;;;;;;;;;;4345669;33;20534;-79
2021/08/15 07:32:33;;;;;;;15.48;6.12;;;;;;;;;;4331665;33;20164;-78
2021/08/15 07:35:00;;;;;;;16.02;6.12;;;;;;;;;;4332236;33;20206;-78
2021/08/15 07:37:26;;;;;;;20.10;6.55;;;;;;;;;;4345360;33;20182;-77
2021/08/15 07:39:51;;;;;;;17.73;6.50;;;;;;;;;;4344375;33;20601;-79
2021/08/15 07:42:16;;;;;;;13.20;6.20;;;;;;;;;;4331980;33;20469;-79
2021/08/15 07:44:44;;;;;;;13.10;5.65;;;;;;;;;;4343856;33;20163;-79
2021/08/15 07:47:12;;;;;;;12.98;5.93;;;;;;;;;;4343677;33;20195;-77
2021/08/15 07:49:37;;;;;;;12.60;5.50;;;;;;;;;;4332694;33;20190;-80
2021/08/15 07:52:15;;;;;;;16.42;6.37;;;;;;;;;;4331416;33;20175;-79
2021/08/15 07:54:40;;;;;;;13.25;5.47;;;;;;;;;;4331449;33;20205;-79
2021/08/15 07:57:06;;;;;;;11.30;5.40;;;;;;;;;;4332350;33;20156;-79
2021/08/15 07:59:34;;;;;;;15.27;5.20;;;;;;;;;;4332096;33;20179;-78
2021/08/15 08:01:59;;;;;;;12.00;4.93;;;;;;;;;;4331400;33;20528;-78
2021/08/15 08:04:24;;;;;;;12.73;5.55;;;;;;;;;;4331589;33;20163;-79
2021/08/15 08:06:53;;;;;;;10.38;4.87;;;;;;;;;;4331442;33;20168;-79
2021/08/15 08:09:18;;;;;;;13.15;4.93;;;;;;;;;;4331910;33;20206;-78
2021/08/15 08:11:43;;;;;;;15.60;4.90;;;;;;;;;;4331857;33;20574;-78
2021/08/15 08:14:09;;;;;;;9.48;4.12;;;;;;;;;;4331565;33;20551;-79
2021/08/15 08:16:34;;;;;;;11.45;4.28;;;;;;;;;;4331061;33;20217;-79
2021/08/15 08:19:00;;;;;;;12.95;4.57;;;;;;;;;;4336147;33;20238;-78
2021/08/15 08:21:28;;;;;;;10.43;4.15;;;;;;;;;;4358261;32;20218;-79
2021/08/15 08:23:57;;;;;;;13.10;5.22;;;;;;;;;;4346784;33;20230;-78
2021/08/15 08:26:23;;;;;;;9.90;4.35;;;;;;;;;;4357585;33;20194;-79
2021/08/15 08:28:54;;;;;;;11.18;4.57;;;;;;;;;;4358658;33;20183;-79
2021/08/15 08:31:19;;;;;;;13.85;4.93;;;;;;;;;;4358316;33;20170;-78
2021/08/15 08:33:45;;;;;;;13.77;5.28;;;;;;;;;;4361254;32;20530;-77
2021/08/15 08:36:10;;;;;;;10.18;4.85;;;;;;;;;;4361230;32;20160;-78
2021/08/15 08:38:37;;;;;;;10.30;4.82;;;;;;;;;;4349154;33;20155;-78
2021/08/15 08:41:02;;;;;;;14.75;5.62;;;;;;;;;;4361148;32;20170;-78
2021/08/15 08:43:27;;;;;;;17.23;5.50;;;;;;;;;;4347366;33;20224;-78
2021/08/15 08:45:53;;;;;;;11.52;4.87;;;;;;;;;;4359308;32;20155;-77
2021/08/15 08:48:19;;;;;;;12.70;4.82;;;;;;;;;;4348088;33;20217;-77
2021/08/15 08:50:47;;;;;;;12.18;5.07;;;;;;;;;;4362019;32;20142;-79
2021/08/15 08:53:13;;;;;;;16.02;4.85;;;;;;;;;;4360220;32;20170;-78
2021/08/15 08:55:38;;;;;;;11.12;4.80;;;;;;;;;;4346083;33;20224;-77
2021/08/15 08:58:03;;;;;;;10.90;4.37;;;;;;;;;;4347764;33;20612;-77
2021/08/15 09:00:28;;;;;;;13.70;5.17;;;;;;;;;;4362526;32;20622;-78
2021/08/15 09:02:57;;;;;;;10.65;4.37;;;;;;;;;;4348885;33;20282;-79
2021/08/15 09:05:32;;;;;;;11.80;5.18;;;;;;;;;;4348142;33;20182;-78
2021/08/15 09:07:58;;;;;;;11.18;4.70;;;;;;;;;;4361987;32;20165;-78
2021/08/15 09:10:28;;;;;;;9.52;4.30;;;;;;;;;;4361622;32;20158;-75
2021/08/15 09:13:00;;;;;;;10.85;4.32;;;;;;;;;;4360652;32;20159;-79
2021/08/15 09:15:26;;;;;;;11.43;4.35;;;;;;;;;;4348425;33;20230;-79
2021/08/15 09:17:52;;;;;;;14.85;4.22;;;;;;;;;;4348079;33;20159;-77
2021/08/15 09:20:24;;;;;;;11.18;4.12;;;;;;;;;;4360237;33;20185;-79
2021/08/15 09:22:50;;;;;;;11.00;4.12;;;;;;;;;;4360570;32;20159;-79
2021/08/15 09:25:22;;;;;;;11.10;4.22;;;;;;;;;;4362364;32;20177;-78
2021/08/15 09:27:47;;;;;;;9.02;3.58;;;;;;;;;;4360540;32;20155;-78
2021/08/15 09:30:15;;;;;;;9.23;4.05;;;;;;;;;;4361279;32;20147;-80
2021/08/15 09:32:45;;;;;;;8.05;3.55;;;;;;;;;;4360687;32;20488;-76
2021/08/15 09:35:15;;;;;;;9.82;4.18;;;;;;;;;;4360249;32;20159;-77
2021/08/15 09:37:40;;;;;;;8.30;3.87;;;;;;;;;;4360352;32;20171;-78
2021/08/15 09:40:22;;;;;;;9.75;3.78;;;;;;;;;;4360339;32;20237;-79
2021/08/15 09:42:50;;;;;;;11.32;4.45;;;;;;;;;;4360072;32;20166;-79
2021/08/15 09:45:17;;;;;;;9.15;3.78;;;;;;;;;;4359634;32;20182;-78
2021/08/15 09:47:43;;;;;;;7.80;3.10;;;;;;;;;;4360092;32;20217;-78
2021/08/15 09:50:19;;;;;;;9.07;3.15;;;;;;;;;;4360495;32;20179;-79
2021/08/15 09:52:44;;;;;;;9.70;3.85;;;;;;;;;;4360655;32;20158;-77
2021/08/15 09:55:10;;;;;;;7.93;3.40;;;;;;;;;;4360657;32;20246;-79
2021/08/15 09:57:36;;;;;;;6.35;3.12;;;;;;;;;;4347414;33;20182;-79
2021/08/15 10:00:03;;;;;;;7.20;2.90;;;;;;;;;;4359906;32;20194;-81
2021/08/15 10:02:29;;;;;;;7.15;3.35;;;;;;;;;;4355302;32;20257;-78
2021/08/15 10:04:57;;;;;;;4.87;2.55;;;;;;;;;;4339075;33;20218;-77
2021/08/15 10:07:25;;;;;;;7.50;2.62;;;;;;;;;;4358327;32;20175;-79
2021/08/15 10:09:50;;;;;;;6.28;2.78;;;;;;;;;;4358509;32;20257;-80
2021/08/15 10:12:19;;;;;;;6.05;2.70;;;;;;;;;;4349155;32;20178;-78
2021/08/15 10:14:44;;;;;;;5.95;2.55;;;;;;;;;;4351533;32;20222;-79
2021/08/15 10:17:14;;;;;;;6.00;2.72;;;;;;;;;;4371424;32;20186;-80
2021/08/15 10:19:46;;;;;;;6.10;2.62;;;;;;;;;;4363182;32;20217;-78
2021/08/15 10:22:19;;;;;;;6.45;2.45;;;;;;;;;;4353500;32;20878;-80
2021/08/15 10:24:45;;;;;;;6.37;2.30;;;;;;;;;;4359065;32;20170;-75
2021/08/15 10:27:32;;;;;;;6.47;2.37;;;;;;;;;;4346620;32;20190;-78
2021/08/15 10:29:58;;;;;;;5.25;2.20;;;;;;;;;;4352195;32;20198;-80
2021/08/15 10:32:23;;;;;;;5.28;2.08;;;;;;;;;;4358991;33;20163;-80
2021/08/15 10:34:54;;;;;;;3.87;1.92;;;;;;;;;;4358938;32;20246;-78
2021/08/15 10:37:24;;;;;;;4.57;2.10;;;;;;;;;;4360730;33;20136;-80
2021/08/15 10:39:50;;;;;;;4.70;2.20;;;;;;;;;;4347249;33;20666;-78
2021/08/15 10:42:34;;;;;;;4.28;1.83;;;;;;;;;;4346819;33;20175;-78
2021/08/15 10:45:01;;;;;;;6.55;2.25;;;;;;;;;;4358581;32;20202;-79
2021/08/15 10:47:26;;;;;;;4.82;2.00;;;;;;;;;;4358373;32;20167;-80
2021/08/15 10:49:52;;;;;;;4.20;2.28;;;;;;;;;;4346451;33;20492;-80
2021/08/15 10:52:25;;;;;;;6.45;2.45;;;;;;;;;;4358285;32;20197;-81
2021/08/15 10:55:00;;;;;;;4.53;2.10;;;;;;;;;;4344578;33;20213;-81
2021/08/15 10:57:52;;;;;;;4.50;2.00;;;;;;;;;;4363337;32;20266;-79
2021/08/15 11:00:30;;;;;;;7.30;2.78;;;;;;;;;;4356707;32;20160;-81
2021/08/15 11:02:59;;;;;;;4.25;2.55;;;;;;;;;;4358942;32;20162;-80
2021/08/15 11:05:34;;;;;;;5.60;2.17;;;;;;;;;;4357239;32;20171;-81
2021/08/15 11:08:00;;;;;;;7.40;2.22;;;;;;;;;;4360072;32;20155;-79
2021/08/15 11:10:25;;;;;;;5.30;2.03;;;;;;;;;;4365424;32;20548;-79
2021/08/15 11:13:09;;;;;;;4.10;1.70;;;;;;;;;;4371027;32;20237;-78
2021/08/15 11:15:35;;;;;;;4.35;1.70;;;;;;;;;;4371520;32;20163;-80
2021/08/15 11:18:10;;;;;;;3.50;1.92;;;;;;;;;;4359388;32;20218;-82
2021/08/15 11:20:41;;;;;;;3.87;1.60;;;;;;;;;;4359982;32;20245;-80
2021/08/15 11:23:11;;;;;;;2.75;1.55;;;;;;;;;;4360162;32;20557;-79
2021/08/15 11:25:36;;;;;;;4.53;1.87;;;;;;;;;;4359386;33;20167;-80
2021/08/15 11:28:01;;;;;;;3.70;1.70;;;;;;;;;;4346924;33;20163;-83
2021/08/15 11:30:26;;;;;;;3.97;1.95;;;;;;;;;;4359048;33;20609;-80
2021/08/15 11:32:57;;;;;;;2.92;1.60;;;;;;;;;;4359396;33;20135;-75
2021/08/15 11:35:23;;;;;;;5.32;2.20;;;;;;;;;;4357814;32;20581;-81
2021/08/15 11:37:52;;;;;;;4.78;2.33;;;;;;;;;;4349274;33;20155;-80
2021/08/15 11:40:18;;;;;;;2.85;1.75;;;;;;;;;;4350470;33;20241;-80
2021/08/15 11:42:44;;;;;;;5.28;2.08;;;;;;;;;;4365677;32;20159;-79
2021/08/15 11:45:10;;;;;;;6.10;2.30;;;;;;;;;;4358971;33;20656;-78
2021/08/15 11:47:36;;;;;;;5.03;2.30;;;;;;;;;;4355305;33;20217;-82
2021/08/15 11:50:31;;;;;;;5.78;2.12;;;;;;;;;;4359327;33;20226;-80
2021/08/15 11:52:56;;;;;;;5.30;2.60;;;;;;;;;;4340074;33;20193;-81
2021/08/15 11:55:25;;;;;;;5.90;2.70;;;;;;;;;;4346566;33;20512;-81
2021/08/15 11:57:55;;;;;;;6.22;2.47;;;;;;;;;;4358985;33;20167;-78
2021/08/15 12:00:32;;;;;;;7.57;3.20;;;;;;;;;;4358763;33;20155;-78
2021/08/15 12:03:00;;;;;;;7.90;2.90;;;;;;;;;;4345950;33;20152;-76
2021/08/15 12:05:26;;;;;;;5.47;2.30;;;;;;;;;;4346940;33;20163;-80
2021/08/15 12:07:51;;;;;;;5.22;2.15;;;;;;;;;;4360070;32;20155;-80
2021/08/15 12:10:25;;;;;;;4.07;2.08;;;;;;;;;;4361109;33;20516;-79
2021/08/15 12:13:12;;;;;;;3.75;1.87;;;;;;;;;;4360204;32;20527;-77
2021/08/15 12:15:38;;;;;;;4.85;2.30;;;;;;;;;;4362036;32;20154;-79
2021/08/15 12:18:03;;;;;;;4.28;2.03;;;;;;;;;;4361488;32;20267;-76
2021/08/15 12:20:40;;;;;;;4.90;2.20;;;;;;;;;;4360640;32;20253;-78
2021/08/15 12:23:08;;;;;;;4.78;2.25;;;;;;;;;;4359090;32;20197;-81
2021/08/15 12:25:34;;;;;;;3.87;1.75;;;;;;;;;;4360665;32;20206;-80
2021/08/15 12:28:12;;;;;;;4.18;1.87;;;;;;;;;;4348650;33;20237;-81
2021/08/15 12:30:40;;;;;;;3.75;2.20;;;;;;;;;;4362817;32;20212;-81
2021/08/15 12:33:23;;;;;;;5.00;2.10;;;;;;;;;;4367520;32;20242;-81
2021/08/15 12:35:48;;;;;;;3.95;2.00;;;;;;;;;;4362024;32;20147;-80
2021/08/15 12:38:26;;;;;;;4.57;2.10;;;;;;;;;;4349121;33;20474;-78
2021/08/15 12:40:52;;;;;;;3.75;1.85;;;;;;;;;;4360417;32;20174;-81
2021/08/15 12:43:22;;;;;;;4.45;2.08;;;;;;;;;;4356411;32;20593;-79
2021/08/15 12:45:48;;;;;;;3.55;2.03;;;;;;;;;;4361543;32;20189;-76
2021/08/15 12:48:15;;;;;;;4.00;2.10;;;;;;;;;;4361084;33;20524;-81
2021/08/15 12:50:40;;;;;;;3.83;1.73;;;;;;;;;;4360856;32;20167;-79
2021/08/15 12:53:16;;;;;;;4.62;2.00;;;;;;;;;;4360901;32;20490;-80
2021/08/15 12:55:41;;;;;;;3.10;1.80;;;;;;;;;;4360620;33;20163;-78
2021/08/15 12:58:11;;;;;;;3.97;1.85;;;;;;;;;;4360771;32;20220;-78
2021/08/15 13:00:37;;;;;;;3.67;1.80;;;;;;;;;;4360573;33;20160;-78
2021/08/15 13:03:04;;;;;;;4.28;2.00;;;;;;;;;;4373053;32;20163;-79
2021/08/15 13:05:31;;;;;;;3.67;1.83;;;;;;;;;;4360604;32;20198;-76
2021/08/15 13:07:56;;;;;;;3.92;2.30;;;;;;;;;;4360343;32;20171;-78
2021/08/15 13:10:23;;;;;;;5.28;1.87;;;;;;;;;;4361572;32;20663;-75
2021/08/15 13:12:55;;;;;;;5.47;2.45;;;;;;;;;;4360505;32;20155;-80
2021/08/15 13:15:23;;;;;;;4.25;2.37;;;;;;;;;;4373452;32;20164;-77
2021/08/15 13:17:48;;;;;;;6.18;2.40;;;;;;;;;;4360910;32;20569;-76
2021/08/15 13:20:21;;;;;;;4.62;2.22;;;;;;;;;;4359510;32;20230;-74
2021/08/15 13:22:47;;;;;;;5.85;2.53;;;;;;;;;;4363026;32;20185;-78
2021/08/15 13:25:12;;;;;;;4.35;2.33;;;;;;;;;;4361706;32;20135;-79
2021/08/15 13:27:38;;;;;;;6.40;2.42;;;;;;;;;;4360192;32;20159;-78
2021/08/15 13:30:04;;;;;;;7.68;2.60;;;;;;;;;;4360997;32;20585;-81
2021/08/15 13:32:29;;;;;;;4.07;2.33;;;;;;;;;;4360256;32;20199;-79
2021/08/15 13:34:55;;;;;;;5.78;2.70;;;;;;;;;;4353815;32;20159;-79
2021/08/15 13:37:24;;;;;;;4.65;2.42;;;;;;;;;;4372501;32;20213;-81
2021/08/15 13:39:53;;;;;;;4.95;2.70;;;;;;;;;;4349711;33;20190;-81
2021/08/15 13:42:18;;;;;;;3.85;2.47;;;;;;;;;;4371225;32;20282;-80
2021/08/15 13:44:43;;;;;;;6.43;2.93;;;;;;;;;;4358386;32;20597;-79
2021/08/15 13:47:08;;;;;;;6.57;3.17;;;;;;;;;;4360862;32;20370;-81
2021/08/15 13:49:34;;;;;;;6.63;2.57;;;;;;;;;;4360942;32;20240;-81
2021/08/15 13:51:59;;;;;;;5.80;2.97;;;;;;;;;;4348875;33;20386;-80
2021/08/15 13:54:25;;;;;;;6.85;3.28;;;;;;;;;;4367311;32;20201;-80
2021/08/15 13:56:50;;;;;;;5.43;2.87;;;;;;;;;;4362599;32;20251;-80
2021/08/15 13:59:15;;;;;;;5.65;2.85;;;;;;;;;;4359861;32;20182;-79
2021/08/15 14:01:44;;;;;;;5.07;2.78;;;;;;;;;;4359833;32;20159;-81
2021/08/15 14:04:13;;;;;;;8.10;3.25;;;;;;;;;;4351923;32;20194;-79
2021/08/15 14:06:39;;;;;;;4.53;2.53;;;;;;;;;;4359057;32;20159;-79
2021/08/15 14:09:04;;;;;;;5.50;2.95;;;;;;;;;;4367281;32;20243;-81
2021/08/15 14:11:29;;;;;;;5.37;3.00;;;;;;;;;;4348709;33;20210;-80
2021/08/15 14:13:54;;;;;;;5.03;3.03;;;;;;;;;;4359523;33;20224;-81
2021/08/15 14:16:20;;;;;;;6.87;2.80;;;;;;;;;;4359963;32;20220;-80
2021/08/15 14:18:46;;;;;;;6.35;2.97;;;;;;;;;;4359528;33;20195;-81
2021/08/15 14:21:11;;;;;;;5.57;2.72;;;;;;;;;;4358353;32;20155;-80
2021/08/15 14:23:37;;;;;;;6.32;3.30;;;;;;;;;;4368731;32;20205;-81
2021/08/15 14:26:02;;;;;;;6.15;3.30;;;;;;;;;;4347298;32;20589;-82
2021/08/15 14:28:27;;;;;;;4.37;2.75;;;;;;;;;;4359515;32;20179;-80
2021/08/15 14:30:53;;;;;;;6.00;2.80;;;;;;;;;;4359569;32;20163;-80
2021/08/15 14:33:24;;;;;;;6.78;3.00;;;;;;;;;;4360047;32;20163;-79